createdAt,value
2023-03-16T00:04:17.534Z,4.63
2023-03-16T00:09:20.592Z,3.67
2023-03-16T00:14:23.671Z,6.90
2023-03-16T00:19:26.675Z,6.40
2023-03-16T00:24:29.541Z,4.83
2023-03-16T00:29:35.069Z,7.67
2023-03-16T00:34:38.056Z,8.37
2023-03-16T00:39:42.162Z,9.73
2023-03-16T00:44:45.928Z,4.10
2023-03-16T00:49:48.945Z,7.63
2023-03-16T00:54:54.486Z,4.53
2023-03-16T00:59:57.290Z,6.40
2023-03-16T01:05:00.215Z,4.57
2023-03-16T01:10:04.543Z,4.73
2023-03-16T01:15:08.875Z,7.17
2023-03-16T01:20:12.644Z,7.00
2023-03-16T01:25:15.759Z,5.57
2023-03-16T01:30:18.852Z,7.43
2023-03-16T01:35:22.026Z,4.97
2023-03-16T01:40:25.766Z,9.27
2023-03-16T01:46:06.053Z,4.20
2023-03-16T01:51:23.326Z,6.70
2023-03-16T01:56:45.515Z,4.30
2023-03-16T02:01:52.040Z,6.40
2023-03-16T02:06:56.654Z,7.20
2023-03-16T02:12:01.384Z,5.57
2023-03-16T02:17:04.433Z,5.70
2023-03-16T02:22:09.656Z,6.17
2023-03-16T02:27:39.756Z,6.40
2023-03-16T02:32:44.217Z,6.87
2023-03-16T02:37:47.489Z,6.47
2023-03-16T02:43:13.286Z,6.23
2023-03-16T02:48:49.456Z,6.90
2023-03-16T02:53:52.374Z,6.73
2023-03-16T02:58:57.468Z,7.37
2023-03-16T03:04:01.470Z,6.40
2023-03-16T03:09:05.485Z,10.80
2023-03-16T03:14:08.795Z,7.37
2023-03-16T03:19:11.870Z,7.53
2023-03-16T03:24:14.849Z,5.90
2023-03-16T03:29:18.268Z,6.00
2023-03-16T03:34:21.205Z,7.10
2023-03-16T03:39:24.657Z,8.87
2023-03-16T03:44:28.132Z,9.93
2023-03-16T03:49:31.439Z,8.50
2023-03-16T03:54:34.741Z,7.97
2023-03-16T03:59:43.803Z,9.47
2023-03-16T04:04:46.647Z,10.43
2023-03-16T04:09:49.688Z,9.97
2023-03-16T04:14:52.674Z,9.23
2023-03-16T04:19:55.642Z,8.23
2023-03-16T04:24:58.844Z,8.27
2023-03-16T04:30:07.354Z,7.07
2023-03-16T04:35:10.828Z,7.27
2023-03-16T04:40:16.943Z,10.13
2023-03-16T04:45:20.182Z,8.90
2023-03-16T04:50:23.132Z,7.47
2023-03-16T04:55:26.389Z,9.53
2023-03-16T05:00:29.932Z,7.40
2023-03-16T05:05:33.422Z,10.70
2023-03-16T05:10:36.716Z,6.93
2023-03-16T05:15:39.974Z,9.30
2023-03-16T05:20:42.906Z,8.97
2023-03-16T05:25:48.359Z,10.57
2023-03-16T05:30:51.861Z,13.27
2023-03-16T05:35:55.008Z,9.20
2023-03-16T05:41:02.923Z,9.27
2023-03-16T05:46:07.223Z,9.23
2023-03-16T05:51:10.107Z,8.07
2023-03-16T05:56:13.124Z,6.90
2023-03-16T06:01:17.094Z,11.27
2023-03-16T06:06:22.842Z,7.87
2023-03-16T06:11:25.810Z,6.63
2023-03-16T06:16:29.052Z,6.70
2023-03-16T06:21:32.276Z,7.13
2023-03-16T06:26:37.040Z,8.57
2023-03-16T06:31:40.191Z,6.53
2023-03-16T06:36:43.162Z,8.90
2023-03-16T06:41:46.263Z,10.87
2023-03-16T06:46:49.263Z,8.10
2023-03-16T06:51:52.366Z,8.13
2023-03-16T06:56:55.348Z,7.50
2023-03-16T07:01:58.374Z,7.60
2023-03-16T07:07:01.529Z,7.73
2023-03-16T07:12:05.589Z,7.20
2023-03-16T07:17:08.709Z,7.63
2023-03-16T07:22:12.760Z,5.27
2023-03-16T07:27:15.738Z,8.07
2023-03-16T07:32:19.430Z,8.20
2023-03-16T07:37:25.825Z,4.70
2023-03-16T07:42:29.271Z,7.77
2023-03-16T07:47:33.817Z,5.23
2023-03-16T07:52:37.619Z,6.97
2023-03-16T07:57:42.269Z,6.17
2023-03-16T08:02:45.315Z,4.63
2023-03-16T08:07:48.360Z,7.63
2023-03-16T08:12:51.966Z,8.00
2023-03-16T08:17:55.698Z,7.37
2023-03-16T08:22:59.208Z,5.40
2023-03-16T08:28:02.308Z,6.97
2023-03-16T08:33:05.611Z,7.57
2023-03-16T08:38:09.160Z,5.83
2023-03-16T08:43:12.135Z,4.77
2023-03-16T08:48:15.833Z,6.43
2023-03-16T08:53:19.122Z,6.57
2023-03-16T08:58:22.551Z,5.70
2023-03-16T09:03:26.264Z,5.43
2023-03-16T09:08:29.674Z,4.87
2023-03-16T09:13:34.055Z,5.17
2023-03-16T09:18:37.160Z,5.17
2023-03-16T09:23:42.817Z,5.22
2023-03-16T09:28:46.751Z,3.95
2023-03-16T09:33:49.835Z,5.37
2023-03-16T09:38:53.470Z,5.80
2023-03-16T09:44:41.373Z,4.00
2023-03-16T09:49:49.039Z,5.00
2023-03-16T09:55:23.082Z,3.93
2023-03-16T10:00:53.053Z,4.70
2023-03-16T10:06:06.748Z,4.93
2023-03-16T10:11:38.340Z,4.63
2023-03-16T10:16:53.234Z,4.15
2023-03-16T10:22:00.757Z,3.97
2023-03-16T10:27:06.360Z,6.45
2023-03-16T10:32:16.633Z,3.60
2023-03-16T10:37:21.514Z,5.03
2023-03-16T10:42:25.272Z,5.43
2023-03-16T10:47:33.895Z,5.78
2023-03-16T10:52:49.935Z,6.95
2023-03-16T10:57:55.864Z,3.38
2023-03-16T11:03:00.172Z,2.75
2023-03-16T11:08:15.511Z,3.08
2023-03-16T11:13:20.779Z,3.47
2023-03-16T11:18:49.045Z,4.50
2023-03-16T11:23:58.147Z,2.80
2023-03-16T11:29:38.972Z,3.17
2023-03-16T11:34:43.589Z,2.30
2023-03-16T11:40:37.084Z,2.97
2023-03-16T11:46:08.007Z,1.88
2023-03-16T11:51:49.210Z,2.45
2023-03-16T11:57:02.171Z,3.85
2023-03-16T12:02:29.930Z,2.58
2023-03-16T12:07:49.067Z,3.75
2023-03-16T12:13:01.189Z,3.03
2023-03-16T12:18:24.493Z,2.70
2023-03-16T12:23:52.376Z,3.95
2023-03-16T12:28:57.589Z,2.67
2023-03-16T12:34:34.568Z,3.58
2023-03-16T12:40:09.145Z,3.97
2023-03-16T12:45:28.591Z,2.75
2023-03-16T12:50:31.923Z,3.17
2023-03-16T12:55:34.709Z,3.13
2023-03-16T13:00:42.881Z,4.80
2023-03-16T13:05:53.230Z,2.97
2023-03-16T13:11:05.437Z,2.67
2023-03-16T13:16:36.505Z,6.00
2023-03-16T13:21:42.762Z,2.40
2023-03-16T13:27:06.657Z,3.88
2023-03-16T13:32:19.629Z,3.80
2023-03-16T13:37:26.695Z,2.65
2023-03-16T13:42:33.244Z,3.55
2023-03-16T13:47:36.345Z,2.03
2023-03-16T13:52:43.237Z,1.80
2023-03-16T13:57:48.170Z,1.73
2023-03-16T14:02:58.890Z,7.57
2023-03-16T14:13:28.369Z,2.50
2023-03-16T14:18:46.473Z,3.10
2023-03-16T14:24:04.611Z,7.22
2023-03-16T14:29:27.676Z,3.92
2023-03-16T14:34:42.301Z,3.38
2023-03-16T14:39:47.019Z,3.95
2023-03-16T14:44:50.480Z,3.33
2023-03-16T14:49:53.896Z,2.60
2023-03-16T14:54:57.306Z,5.05
2023-03-16T15:00:00.378Z,3.08
2023-03-16T15:05:05.291Z,3.30
2023-03-16T15:10:29.335Z,5.75
2023-03-16T15:15:32.837Z,3.65
2023-03-16T15:20:45.731Z,4.85
2023-03-16T15:25:49.721Z,3.58
2023-03-16T15:30:58.978Z,3.58
2023-03-16T15:36:13.594Z,2.93
2023-03-16T15:41:17.639Z,2.63
2023-03-16T15:46:21.347Z,3.87
2023-03-16T15:51:30.210Z,5.40
2023-03-16T15:56:50.926Z,5.20
2023-03-16T16:01:56.687Z,4.07
2023-03-16T16:07:02.221Z,4.97
2023-03-16T16:12:06.179Z,4.97
2023-03-16T16:17:21.144Z,2.83
2023-03-16T16:22:25.666Z,3.77
2023-03-16T16:27:28.894Z,7.97
2023-03-16T16:32:31.854Z,3.90
2023-03-16T16:37:36.105Z,8.50
2023-03-16T16:42:40.198Z,18.37
2023-03-16T16:47:43.019Z,19.00
2023-03-16T16:52:46.098Z,17.13
2023-03-16T16:57:53.012Z,8.23
2023-03-16T17:03:01.595Z,16.37
2023-03-16T17:08:05.401Z,18.50
2023-03-16T17:13:21.172Z,20.90
2023-03-16T17:18:24.584Z,21.23
2023-03-16T17:23:37.239Z,19.20
2023-03-16T17:28:53.220Z,13.53
2023-03-16T17:33:57.404Z,14.40
2023-03-16T17:39:02.124Z,15.17
2023-03-16T17:44:11.490Z,23.30
2023-03-16T17:49:18.324Z,27.67
2023-03-16T17:54:22.164Z,27.37
2023-03-16T17:59:25.947Z,27.33
2023-03-16T18:04:28.951Z,25.40
2023-03-16T18:09:31.929Z,19.63
2023-03-16T18:14:38.517Z,19.43
2023-03-16T18:19:42.348Z,20.87
2023-03-16T18:24:46.963Z,15.43
2023-03-16T18:29:50.188Z,11.50
2023-03-16T18:34:53.843Z,12.10
2023-03-16T18:39:56.849Z,22.63
2023-03-16T18:45:01.069Z,49.63
2023-03-16T18:50:04.504Z,68.00
2023-03-16T18:55:21.166Z,67.10
2023-03-16T19:00:29.930Z,43.33
2023-03-16T19:05:36.862Z,35.67
2023-03-16T19:10:48.346Z,53.03
2023-03-16T19:15:57.839Z,42.40
2023-03-16T19:21:01.500Z,61.43
2023-03-16T19:26:04.977Z,76.47
2023-03-16T19:31:27.467Z,78.80
2023-03-16T19:36:33.967Z,29.47
2023-03-16T19:41:38.452Z,25.10
2023-03-16T19:46:42.715Z,24.03
2023-03-16T19:51:47.332Z,23.20
2023-03-16T19:56:55.351Z,32.03
2023-03-16T20:01:59.692Z,24.93
2023-03-16T20:07:02.470Z,25.80
2023-03-16T20:12:05.600Z,36.00
2023-03-16T20:17:19.416Z,31.27
2023-03-16T20:22:26.060Z,23.23
2023-03-16T20:27:29.137Z,19.43
2023-03-16T20:32:36.339Z,18.20
2023-03-16T20:37:39.517Z,19.53
2023-03-16T20:42:43.044Z,14.60
2023-03-16T20:47:46.579Z,13.57
2023-03-16T20:52:49.962Z,16.63
2023-03-16T20:57:54.101Z,15.00
2023-03-16T21:02:58.702Z,14.70
2023-03-16T21:08:01.786Z,12.43
2023-03-16T21:13:04.932Z,17.63
2023-03-16T21:18:15.420Z,17.20
2023-03-16T21:23:21.327Z,36.53
2023-03-16T21:28:28.954Z,39.13
2023-03-16T21:33:41.753Z,14.33
2023-03-16T21:38:46.067Z,20.87
2023-03-16T21:43:50.126Z,14.13
2023-03-16T21:48:55.800Z,9.97
2023-03-16T21:53:59.005Z,12.77
2023-03-16T21:59:01.955Z,12.23
2023-03-16T22:04:16.721Z,9.93
2023-03-16T22:09:22.643Z,12.43
2023-03-16T22:14:27.182Z,17.40
2023-03-16T22:19:30.602Z,16.27
2023-03-16T22:24:35.868Z,21.80
2023-03-16T22:29:44.133Z,17.73
2023-03-16T22:34:53.881Z,29.23
2023-03-16T22:39:58.589Z,15.33
2023-03-16T22:45:02.309Z,12.07
2023-03-16T22:50:07.355Z,12.40
2023-03-16T22:55:22.396Z,22.33
2023-03-16T23:00:28.781Z,28.23
2023-03-16T23:05:32.332Z,25.10
2023-03-16T23:10:36.508Z,21.47
2023-03-16T23:15:39.584Z,16.03
2023-03-16T23:20:42.695Z,17.83
2023-03-16T23:25:47.710Z,14.80
2023-03-16T23:30:51.221Z,18.67
2023-03-16T23:35:54.243Z,13.40
2023-03-16T23:40:57.317Z,11.33
2023-03-16T23:46:00.386Z,10.00
2023-03-16T23:51:04.077Z,15.10
2023-03-16T23:56:10.889Z,18.73
